sensor_id;sensor_type;location;lat;lon;timestamp;P1;durP1;ratioP1;P2;durP2;ratioP2
7047;SDS011;3565;53.254;10.352;2023-11-18T00:02:39;11.57;;;7.40;;
7047;SDS011;3565;53.254;10.352;2023-11-18T00:05:10;12.57;;;7.57;;
7047;SDS011;3565;53.254;10.352;2023-11-18T00:07:40;12.13;;;7.90;;
7047;SDS011;3565;53.254;10.352;2023-11-18T00:12:47;10.77;;;7.50;;
7047;SDS011;3565;53.254;10.352;2023-11-18T00:15:16;11.70;;;6.43;;
7047;SDS011;3565;53.254;10.352;2023-11-18T00:17:54;13.57;;;8.10;;
7047;SDS011;3565;53.254;10.352;2023-11-18T00:23:01;12.23;;;7.43;;
7047;SDS011;3565;53.254;10.352;2023-11-18T00:25:31;10.17;;;7.37;;
7047;SDS011;3565;53.254;10.352;2023-11-18T00:28:01;12.80;;;7.90;;
7047;SDS011;3565;53.254;10.352;2023-11-18T00:30:32;11.57;;;7.30;;
7047;SDS011;3565;53.254;10.352;2023-11-18T00:35:38;11.60;;;7.70;;
7047;SDS011;3565;53.254;10.352;2023-11-18T00:38:09;12.17;;;8.10;;
7047;SDS011;3565;53.254;10.352;2023-11-18T00:40:38;11.37;;;6.67;;
7047;SDS011;3565;53.254;10.352;2023-11-18T00:43:07;11.63;;;7.47;;
7047;SDS011;3565;53.254;10.352;2023-11-18T00:45:36;12.87;;;7.90;;
7047;SDS011;3565;53.254;10.352;2023-11-18T00:50:44;11.83;;;7.77;;
7047;SDS011;3565;53.254;10.352;2023-11-18T00:55:50;12.40;;;7.63;;
7047;SDS011;3565;53.254;10.352;2023-11-18T01:00:56;11.77;;;8.00;;
7047;SDS011;3565;53.254;10.352;2023-11-18T01:03:27;11.93;;;7.83;;
7047;SDS011;3565;53.254;10.352;2023-11-18T01:05:56;13.33;;;7.50;;
7047;SDS011;3565;53.254;10.352;2023-11-18T01:11:04;11.50;;;7.73;;
7047;SDS011;3565;53.254;10.352;2023-11-18T01:13:33;13.00;;;8.17;;
7047;SDS011;3565;53.254;10.352;2023-11-18T01:16:03;12.27;;;7.80;;
7047;SDS011;3565;53.254;10.352;2023-11-18T01:18:43;12.67;;;7.83;;
7047;SDS011;3565;53.254;10.352;2023-11-18T01:23:50;12.57;;;7.90;;
7047;SDS011;3565;53.254;10.352;2023-11-18T01:26:19;11.70;;;7.67;;
7047;SDS011;3565;53.254;10.352;2023-11-18T01:28:58;10.93;;;7.30;;
7047;SDS011;3565;53.254;10.352;2023-11-18T01:31:27;14.30;;;8.27;;
7047;SDS011;3565;53.254;10.352;2023-11-18T01:36:33;13.47;;;8.27;;
7047;SDS011;3565;53.254;10.352;2023-11-18T01:41:40;12.23;;;7.90;;
7047;SDS011;3565;53.254;10.352;2023-11-18T01:44:09;11.87;;;7.37;;
7047;SDS011;3565;53.254;10.352;2023-11-18T01:46:39;11.67;;;8.17;;
7047;SDS011;3565;53.254;10.352;2023-11-18T01:51:49;13.00;;;7.97;;
7047;SDS011;3565;53.254;10.352;2023-11-18T01:54:18;14.37;;;8.90;;
7047;SDS011;3565;53.254;10.352;2023-11-18T01:56:50;12.63;;;8.37;;
7047;SDS011;3565;53.254;10.352;2023-11-18T02:01:57;10.90;;;7.37;;
7047;SDS011;3565;53.254;10.352;2023-11-18T02:04:28;13.53;;;7.83;;
7047;SDS011;3565;53.254;10.352;2023-11-18T02:09:35;14.10;;;8.20;;
7047;SDS011;3565;53.254;10.352;2023-11-18T02:14:44;13.00;;;8.37;;
7047;SDS011;3565;53.254;10.352;2023-11-18T02:17:14;11.47;;;7.47;;
7047;SDS011;3565;53.254;10.352;2023-11-18T02:22:22;11.97;;;7.70;;
7047;SDS011;3565;53.254;10.352;2023-11-18T02:24:53;12.57;;;8.90;;
7047;SDS011;3565;53.254;10.352;2023-11-18T02:29:59;13.13;;;8.10;;
7047;SDS011;3565;53.254;10.352;2023-11-18T02:32:30;11.93;;;7.70;;
7047;SDS011;3565;53.254;10.352;2023-11-18T02:37:40;15.30;;;8.80;;
7047;SDS011;3565;53.254;10.352;2023-11-18T02:40:12;13.17;;;8.40;;
7047;SDS011;3565;53.254;10.352;2023-11-18T02:45:24;12.60;;;7.53;;
7047;SDS011;3565;53.254;10.352;2023-11-18T02:47:54;15.73;;;7.93;;
7047;SDS011;3565;53.254;10.352;2023-11-18T02:53:01;12.33;;;8.30;;
7047;SDS011;3565;53.254;10.352;2023-11-18T02:55:30;12.83;;;7.73;;
7047;SDS011;3565;53.254;10.352;2023-11-18T02:57:59;12.77;;;7.33;;
7047;SDS011;3565;53.254;10.352;2023-11-18T03:03:06;14.23;;;8.27;;
7047;SDS011;3565;53.254;10.352;2023-11-18T03:05:35;12.97;;;7.97;;
7047;SDS011;3565;53.254;10.352;2023-11-18T03:08:05;11.90;;;7.47;;
7047;SDS011;3565;53.254;10.352;2023-11-18T03:10:34;12.90;;;8.43;;
7047;SDS011;3565;53.254;10.352;2023-11-18T03:15:40;11.70;;;8.10;;
7047;SDS011;3565;53.254;10.352;2023-11-18T03:18:09;12.70;;;7.80;;
7047;SDS011;3565;53.254;10.352;2023-11-18T03:20:38;11.87;;;6.87;;
7047;SDS011;3565;53.254;10.352;2023-11-18T03:25:45;13.53;;;7.80;;
7047;SDS011;3565;53.254;10.352;2023-11-18T03:28:14;13.57;;;7.20;;
7047;SDS011;3565;53.254;10.352;2023-11-18T03:30:42;12.27;;;7.33;;
7047;SDS011;3565;53.254;10.352;2023-11-18T03:35:50;14.57;;;8.17;;
7047;SDS011;3565;53.254;10.352;2023-11-18T03:40:58;15.10;;;7.90;;
7047;SDS011;3565;53.254;10.352;2023-11-18T03:43:27;12.60;;;7.37;;
7047;SDS011;3565;53.254;10.352;2023-11-18T03:48:33;11.70;;;7.77;;
7047;SDS011;3565;53.254;10.352;2023-11-18T03:53:40;10.63;;;7.60;;
7047;SDS011;3565;53.254;10.352;2023-11-18T03:56:10;12.43;;;7.93;;
7047;SDS011;3565;53.254;10.352;2023-11-18T04:01:21;14.30;;;8.40;;
7047;SDS011;3565;53.254;10.352;2023-11-18T04:03:53;12.40;;;7.30;;
7047;SDS011;3565;53.254;10.352;2023-11-18T04:06:22;14.93;;;8.50;;
7047;SDS011;3565;53.254;10.352;2023-11-18T04:11:30;10.57;;;7.33;;
7047;SDS011;3565;53.254;10.352;2023-11-18T04:13:59;10.83;;;7.10;;
7047;SDS011;3565;53.254;10.352;2023-11-18T04:16:29;14.17;;;8.30;;
7047;SDS011;3565;53.254;10.352;2023-11-18T04:21:35;11.60;;;6.57;;
7047;SDS011;3565;53.254;10.352;2023-11-18T04:26:42;11.40;;;6.87;;
7047;SDS011;3565;53.254;10.352;2023-11-18T04:29:11;14.17;;;7.40;;
7047;SDS011;3565;53.254;10.352;2023-11-18T04:31:40;13.07;;;7.60;;
7047;SDS011;3565;53.254;10.352;2023-11-18T04:36:46;10.53;;;6.43;;
7047;SDS011;3565;53.254;10.352;2023-11-18T04:41:52;14.70;;;7.27;;
7047;SDS011;3565;53.254;10.352;2023-11-18T04:47:00;13.30;;;7.30;;
7047;SDS011;3565;53.254;10.352;2023-11-18T04:49:29;11.23;;;7.20;;
7047;SDS011;3565;53.254;10.352;2023-11-18T04:54:36;13.57;;;7.40;;
7047;SDS011;3565;53.254;10.352;2023-11-18T04:57:06;11.30;;;6.80;;
7047;SDS011;3565;53.254;10.352;2023-11-18T04:59:35;13.13;;;7.60;;
7047;SDS011;3565;53.254;10.352;2023-11-18T05:02:05;11.43;;;6.93;;
7047;SDS011;3565;53.254;10.352;2023-11-18T05:04:34;10.17;;;6.73;;
7047;SDS011;3565;53.254;10.352;2023-11-18T05:09:40;9.97;;;7.17;;
7047;SDS011;3565;53.254;10.352;2023-11-18T05:14:47;11.97;;;7.27;;
7047;SDS011;3565;53.254;10.352;2023-11-18T05:17:16;14.33;;;6.70;;
7047;SDS011;3565;53.254;10.352;2023-11-18T05:22:32;11.13;;;7.00;;
7047;SDS011;3565;53.254;10.352;2023-11-18T05:25:04;12.07;;;7.80;;
7047;SDS011;3565;53.254;10.352;2023-11-18T05:27:34;11.73;;;6.90;;
7047;SDS011;3565;53.254;10.352;2023-11-18T05:32:41;13.47;;;7.40;;
7047;SDS011;3565;53.254;10.352;2023-11-18T05:37:47;11.33;;;6.57;;
7047;SDS011;3565;53.254;10.352;2023-11-18T05:42:53;9.67;;;6.23;;
7047;SDS011;3565;53.254;10.352;2023-11-18T05:45:23;10.60;;;6.50;;
7047;SDS011;3565;53.254;10.352;2023-11-18T05:47:57;11.23;;;6.87;;
7047;SDS011;3565;53.254;10.352;2023-11-18T05:53:05;11.73;;;6.77;;
7047;SDS011;3565;53.254;10.352;2023-11-18T05:55:35;11.00;;;6.53;;
7047;SDS011;3565;53.254;10.352;2023-11-18T05:58:04;11.73;;;7.13;;
7047;SDS011;3565;53.254;10.352;2023-11-18T06:00:35;12.13;;;6.80;;
7047;SDS011;3565;53.254;10.352;2023-11-18T06:05:42;12.37;;;7.23;;
7047;SDS011;3565;53.254;10.352;2023-11-18T06:08:10;13.20;;;7.57;;
7047;SDS011;3565;53.254;10.352;2023-11-18T06:13:17;13.77;;;7.00;;
7047;SDS011;3565;53.254;10.352;2023-11-18T06:15:46;14.63;;;7.27;;
7047;SDS011;3565;53.254;10.352;2023-11-18T06:18:17;12.33;;;7.17;;
7047;SDS011;3565;53.254;10.352;2023-11-18T06:20:56;15.07;;;8.27;;
7047;SDS011;3565;53.254;10.352;2023-11-18T06:23:25;13.47;;;7.63;;
7047;SDS011;3565;53.254;10.352;2023-11-18T06:25:54;12.97;;;6.93;;
7047;SDS011;3565;53.254;10.352;2023-11-18T06:31:01;13.27;;;7.40;;
7047;SDS011;3565;53.254;10.352;2023-11-18T06:33:33;14.77;;;7.77;;
7047;SDS011;3565;53.254;10.352;2023-11-18T06:36:09;11.03;;;6.40;;
7047;SDS011;3565;53.254;10.352;2023-11-18T06:38:45;11.23;;;6.80;;
7047;SDS011;3565;53.254;10.352;2023-11-18T06:43:53;13.97;;;7.57;;
7047;SDS011;3565;53.254;10.352;2023-11-18T06:46:26;13.23;;;7.40;;
7047;SDS011;3565;53.254;10.352;2023-11-18T06:51:35;14.90;;;8.07;;
7047;SDS011;3565;53.254;10.352;2023-11-18T06:56:43;14.17;;;7.47;;
7047;SDS011;3565;53.254;10.352;2023-11-18T07:01:49;14.53;;;8.27;;
7047;SDS011;3565;53.254;10.352;2023-11-18T07:04:18;13.57;;;7.87;;
7047;SDS011;3565;53.254;10.352;2023-11-18T07:06:47;11.70;;;7.33;;
7047;SDS011;3565;53.254;10.352;2023-11-18T07:11:54;13.33;;;8.10;;
7047;SDS011;3565;53.254;10.352;2023-11-18T07:14:23;15.20;;;8.03;;
7047;SDS011;3565;53.254;10.352;2023-11-18T07:16:53;14.37;;;8.43;;
7047;SDS011;3565;53.254;10.352;2023-11-18T07:21:59;12.97;;;7.53;;
7047;SDS011;3565;53.254;10.352;2023-11-18T07:24:28;12.47;;;8.00;;
7047;SDS011;3565;53.254;10.352;2023-11-18T07:29:35;13.77;;;8.27;;
7047;SDS011;3565;53.254;10.352;2023-11-18T07:34:42;16.37;;;7.37;;
7047;SDS011;3565;53.254;10.352;2023-11-18T07:37:11;14.57;;;8.13;;
7047;SDS011;3565;53.254;10.352;2023-11-18T07:39:40;15.50;;;7.77;;
7047;SDS011;3565;53.254;10.352;2023-11-18T07:44:48;16.37;;;8.27;;
7047;SDS011;3565;53.254;10.352;2023-11-18T07:47:18;14.27;;;7.97;;
7047;SDS011;3565;53.254;10.352;2023-11-18T07:52:25;17.10;;;8.57;;
7047;SDS011;3565;53.254;10.352;2023-11-18T07:54:55;14.03;;;8.20;;
7047;SDS011;3565;53.254;10.352;2023-11-18T07:57:24;12.87;;;7.50;;
7047;SDS011;3565;53.254;10.352;2023-11-18T07:59:53;15.10;;;7.97;;
7047;SDS011;3565;53.254;10.352;2023-11-18T08:05:03;14.37;;;7.50;;
7047;SDS011;3565;53.254;10.352;2023-11-18T08:07:34;14.30;;;7.60;;
7047;SDS011;3565;53.254;10.352;2023-11-18T08:12:42;11.33;;;7.20;;
7047;SDS011;3565;53.254;10.352;2023-11-18T08:15:11;16.03;;;7.17;;
7047;SDS011;3565;53.254;10.352;2023-11-18T08:17:40;10.87;;;6.70;;
7047;SDS011;3565;53.254;10.352;2023-11-18T08:22:47;13.10;;;7.03;;
7047;SDS011;3565;53.254;10.352;2023-11-18T08:25:16;10.07;;;6.20;;
7047;SDS011;3565;53.254;10.352;2023-11-18T08:27:45;13.50;;;6.83;;
7047;SDS011;3565;53.254;10.352;2023-11-18T08:30:15;10.07;;;6.40;;
7047;SDS011;3565;53.254;10.352;2023-11-18T08:32:53;12.00;;;6.50;;
7047;SDS011;3565;53.254;10.352;2023-11-18T08:35:23;11.40;;;7.00;;
7047;SDS011;3565;53.254;10.352;2023-11-18T08:37:52;12.00;;;6.70;;
7047;SDS011;3565;53.254;10.352;2023-11-18T08:42:58;10.47;;;5.73;;
7047;SDS011;3565;53.254;10.352;2023-11-18T08:45:28;9.20;;;5.83;;
7047;SDS011;3565;53.254;10.352;2023-11-18T08:47:59;7.67;;;5.37;;
7047;SDS011;3565;53.254;10.352;2023-11-18T08:50:31;10.47;;;6.13;;
7047;SDS011;3565;53.254;10.352;2023-11-18T08:55:37;9.63;;;6.23;;
7047;SDS011;3565;53.254;10.352;2023-11-18T08:58:08;11.30;;;6.50;;
7047;SDS011;3565;53.254;10.352;2023-11-18T09:00:45;12.10;;;6.57;;
7047;SDS011;3565;53.254;10.352;2023-11-18T09:05:55;13.53;;;6.50;;
7047;SDS011;3565;53.254;10.352;2023-11-18T09:11:05;11.70;;;6.63;;
7047;SDS011;3565;53.254;10.352;2023-11-18T09:13:37;12.37;;;6.87;;
7047;SDS011;3565;53.254;10.352;2023-11-18T09:16:08;12.57;;;6.50;;
7047;SDS011;3565;53.254;10.352;2023-11-18T09:18:38;11.93;;;6.07;;
7047;SDS011;3565;53.254;10.352;2023-11-18T09:21:11;11.17;;;5.87;;
7047;SDS011;3565;53.254;10.352;2023-11-18T09:23:41;9.00;;;5.27;;
7047;SDS011;3565;53.254;10.352;2023-11-18T09:26:13;10.50;;;6.07;;
7047;SDS011;3565;53.254;10.352;2023-11-18T09:28:43;10.40;;;5.67;;
7047;SDS011;3565;53.254;10.352;2023-11-18T09:31:12;8.87;;;5.63;;
7047;SDS011;3565;53.254;10.352;2023-11-18T09:33:41;9.00;;;5.40;;
7047;SDS011;3565;53.254;10.352;2023-11-18T09:38:50;9.43;;;5.53;;
7047;SDS011;3565;53.254;10.352;2023-11-18T09:41:22;7.13;;;5.00;;
7047;SDS011;3565;53.254;10.352;2023-11-18T09:44:00;6.97;;;4.77;;
7047;SDS011;3565;53.254;10.352;2023-11-18T09:46:30;7.27;;;4.50;;
7047;SDS011;3565;53.254;10.352;2023-11-18T09:49:02;7.13;;;4.50;;
7047;SDS011;3565;53.254;10.352;2023-11-18T09:51:44;9.20;;;4.37;;
7047;SDS011;3565;53.254;10.352;2023-11-18T09:56:55;7.40;;;4.60;;
7047;SDS011;3565;53.254;10.352;2023-11-18T09:59:30;7.50;;;4.03;;
7047;SDS011;3565;53.254;10.352;2023-11-18T10:02:02;5.77;;;4.10;;
7047;SDS011;3565;53.254;10.352;2023-11-18T10:04:33;8.73;;;4.00;;
7047;SDS011;3565;53.254;10.352;2023-11-18T10:07:03;7.30;;;4.43;;
7047;SDS011;3565;53.254;10.352;2023-11-18T10:09:43;6.97;;;3.80;;
7047;SDS011;3565;53.254;10.352;2023-11-18T10:14:51;7.10;;;3.93;;
7047;SDS011;3565;53.254;10.352;2023-11-18T10:17:20;5.97;;;3.70;;
7047;SDS011;3565;53.254;10.352;2023-11-18T10:19:52;6.50;;;4.00;;
7047;SDS011;3565;53.254;10.352;2023-11-18T10:25:00;5.00;;;3.77;;
7047;SDS011;3565;53.254;10.352;2023-11-18T10:27:30;6.10;;;3.63;;
7047;SDS011;3565;53.254;10.352;2023-11-18T10:30:02;3.67;;;3.03;;
7047;SDS011;3565;53.254;10.352;2023-11-18T10:32:41;3.30;;;2.83;;
7047;SDS011;3565;53.254;10.352;2023-11-18T10:35:11;3.90;;;3.13;;
7047;SDS011;3565;53.254;10.352;2023-11-18T10:37:40;3.47;;;2.80;;
7047;SDS011;3565;53.254;10.352;2023-11-18T10:42:47;3.70;;;2.80;;
7047;SDS011;3565;53.254;10.352;2023-11-18T10:48:01;4.97;;;2.83;;
7047;SDS011;3565;53.254;10.352;2023-11-18T10:50:31;3.43;;;2.70;;
7047;SDS011;3565;53.254;10.352;2023-11-18T10:53:00;3.77;;;2.63;;
7047;SDS011;3565;53.254;10.352;2023-11-18T10:55:37;3.63;;;2.80;;
7047;SDS011;3565;53.254;10.352;2023-11-18T11:00:48;4.90;;;3.57;;
7047;SDS011;3565;53.254;10.352;2023-11-18T11:05:57;6.10;;;3.20;;
7047;SDS011;3565;53.254;10.352;2023-11-18T11:08:26;5.43;;;3.70;;
7047;SDS011;3565;53.254;10.352;2023-11-18T11:10:57;6.23;;;3.20;;
7047;SDS011;3565;53.254;10.352;2023-11-18T11:16:07;3.83;;;3.00;;
7047;SDS011;3565;53.254;10.352;2023-11-18T11:18:40;5.10;;;3.40;;
7047;SDS011;3565;53.254;10.352;2023-11-18T11:21:21;4.93;;;3.53;;
7047;SDS011;3565;53.254;10.352;2023-11-18T11:24:03;3.93;;;3.03;;
7047;SDS011;3565;53.254;10.352;2023-11-18T11:26:39;3.80;;;3.20;;
7047;SDS011;3565;53.254;10.352;2023-11-18T11:29:22;3.80;;;3.00;;
7047;SDS011;3565;53.254;10.352;2023-11-18T11:31:58;4.37;;;3.00;;
7047;SDS011;3565;53.254;10.352;2023-11-18T11:34:33;4.10;;;2.90;;
7047;SDS011;3565;53.254;10.352;2023-11-18T11:37:06;3.90;;;2.93;;
7047;SDS011;3565;53.254;10.352;2023-11-18T11:39:45;3.70;;;2.90;;
7047;SDS011;3565;53.254;10.352;2023-11-18T11:44:53;5.23;;;2.97;;
7047;SDS011;3565;53.254;10.352;2023-11-18T11:47:24;3.97;;;3.40;;
7047;SDS011;3565;53.254;10.352;2023-11-18T11:50:06;6.90;;;3.70;;
7047;SDS011;3565;53.254;10.352;2023-11-18T11:52:44;4.63;;;3.27;;
7047;SDS011;3565;53.254;10.352;2023-11-18T11:57:56;4.07;;;3.27;;
7047;SDS011;3565;53.254;10.352;2023-11-18T12:00:26;3.67;;;3.23;;
7047;SDS011;3565;53.254;10.352;2023-11-18T12:08:17;3.37;;;2.80;;
7047;SDS011;3565;53.254;10.352;2023-11-18T12:10:54;3.90;;;3.43;;
7047;SDS011;3565;53.254;10.352;2023-11-18T12:16:00;4.33;;;2.83;;
7047;SDS011;3565;53.254;10.352;2023-11-18T12:18:30;4.97;;;3.10;;
7047;SDS011;3565;53.254;10.352;2023-11-18T12:21:00;3.90;;;3.13;;
7047;SDS011;3565;53.254;10.352;2023-11-18T12:26:37;3.70;;;3.23;;
7047;SDS011;3565;53.254;10.352;2023-11-18T12:29:04;5.90;;;3.53;;
7047;SDS011;3565;53.254;10.352;2023-11-18T12:31:39;5.60;;;3.60;;
7047;SDS011;3565;53.254;10.352;2023-11-18T12:34:18;5.20;;;3.90;;
7047;SDS011;3565;53.254;10.352;2023-11-18T12:40:02;4.90;;;3.50;;
7047;SDS011;3565;53.254;10.352;2023-11-18T12:45:42;4.60;;;3.73;;
7047;SDS011;3565;53.254;10.352;2023-11-18T12:50:52;5.17;;;3.93;;
7047;SDS011;3565;53.254;10.352;2023-11-18T12:55:59;4.50;;;3.70;;
7047;SDS011;3565;53.254;10.352;2023-11-18T12:58:30;5.87;;;3.30;;
7047;SDS011;3565;53.254;10.352;2023-11-18T13:01:00;3.90;;;3.47;;
7047;SDS011;3565;53.254;10.352;2023-11-18T13:06:06;4.50;;;3.40;;
7047;SDS011;3565;53.254;10.352;2023-11-18T13:08:38;5.57;;;3.80;;
7047;SDS011;3565;53.254;10.352;2023-11-18T13:11:07;3.73;;;3.20;;
7047;SDS011;3565;53.254;10.352;2023-11-18T13:16:15;5.57;;;3.20;;
7047;SDS011;3565;53.254;10.352;2023-11-18T13:18:44;5.57;;;3.30;;
7047;SDS011;3565;53.254;10.352;2023-11-18T13:21:16;6.70;;;4.20;;
7047;SDS011;3565;53.254;10.352;2023-11-18T13:23:45;5.10;;;3.80;;
7047;SDS011;3565;53.254;10.352;2023-11-18T13:28:53;5.60;;;3.90;;
7047;SDS011;3565;53.254;10.352;2023-11-18T13:31:22;7.77;;;4.30;;
7047;SDS011;3565;53.254;10.352;2023-11-18T13:33:51;5.53;;;3.97;;
7047;SDS011;3565;53.254;10.352;2023-11-18T13:38:57;8.40;;;4.63;;
7047;SDS011;3565;53.254;10.352;2023-11-18T13:41:30;6.30;;;5.00;;
7047;SDS011;3565;53.254;10.352;2023-11-18T13:43:59;7.60;;;4.60;;
7047;SDS011;3565;53.254;10.352;2023-11-18T13:49:06;5.70;;;4.13;;
7047;SDS011;3565;53.254;10.352;2023-11-18T13:51:35;6.87;;;4.03;;
7047;SDS011;3565;53.254;10.352;2023-11-18T13:56:43;6.93;;;4.00;;
7047;SDS011;3565;53.254;10.352;2023-11-18T13:59:12;5.50;;;3.70;;
7047;SDS011;3565;53.254;10.352;2023-11-18T14:01:42;5.37;;;3.70;;
7047;SDS011;3565;53.254;10.352;2023-11-18T14:04:12;5.77;;;4.13;;
7047;SDS011;3565;53.254;10.352;2023-11-18T14:06:41;5.07;;;3.60;;
7047;SDS011;3565;53.254;10.352;2023-11-18T14:09:20;4.40;;;3.40;;
7047;SDS011;3565;53.254;10.352;2023-11-18T14:14:27;4.37;;;3.50;;
7047;SDS011;3565;53.254;10.352;2023-11-18T14:16:57;5.03;;;3.43;;
7047;SDS011;3565;53.254;10.352;2023-11-18T14:19:25;4.70;;;3.53;;
7047;SDS011;3565;53.254;10.352;2023-11-18T14:21:55;3.93;;;3.00;;
7047;SDS011;3565;53.254;10.352;2023-11-18T14:27:02;4.73;;;4.03;;
7047;SDS011;3565;53.254;10.352;2023-11-18T14:29:33;4.80;;;4.03;;
7047;SDS011;3565;53.254;10.352;2023-11-18T14:34:41;6.37;;;3.97;;
7047;SDS011;3565;53.254;10.352;2023-11-18T14:37:10;4.80;;;4.27;;
7047;SDS011;3565;53.254;10.352;2023-11-18T14:39:39;4.43;;;3.47;;
7047;SDS011;3565;53.254;10.352;2023-11-18T14:42:08;5.60;;;4.50;;
7047;SDS011;3565;53.254;10.352;2023-11-18T14:44:37;7.90;;;5.37;;
7047;SDS011;3565;53.254;10.352;2023-11-18T14:47:15;6.23;;;4.70;;
7047;SDS011;3565;53.254;10.352;2023-11-18T14:49:45;7.37;;;4.83;;
7047;SDS011;3565;53.254;10.352;2023-11-18T14:54:50;7.10;;;4.90;;
7047;SDS011;3565;53.254;10.352;2023-11-18T14:57:19;5.90;;;4.57;;
7047;SDS011;3565;53.254;10.352;2023-11-18T14:59:48;5.90;;;4.63;;
7047;SDS011;3565;53.254;10.352;2023-11-18T15:02:17;6.00;;;4.30;;
7047;SDS011;3565;53.254;10.352;2023-11-18T15:04:47;6.40;;;4.10;;
7047;SDS011;3565;53.254;10.352;2023-11-18T15:07:26;5.93;;;4.17;;
7047;SDS011;3565;53.254;10.352;2023-11-18T15:09:54;5.33;;;4.03;;
7047;SDS011;3565;53.254;10.352;2023-11-18T15:15:05;5.43;;;3.90;;
7047;SDS011;3565;53.254;10.352;2023-11-18T15:17:37;6.77;;;4.20;;
7047;SDS011;3565;53.254;10.352;2023-11-18T15:20:08;5.20;;;4.20;;
7047;SDS011;3565;53.254;10.352;2023-11-18T15:22:48;4.80;;;4.10;;
7047;SDS011;3565;53.254;10.352;2023-11-18T15:27:57;5.97;;;4.33;;
7047;SDS011;3565;53.254;10.352;2023-11-18T15:30:27;6.50;;;4.27;;
7047;SDS011;3565;53.254;10.352;2023-11-18T15:32:55;7.80;;;4.80;;
7047;SDS011;3565;53.254;10.352;2023-11-18T15:35:24;6.60;;;4.33;;
7047;SDS011;3565;53.254;10.352;2023-11-18T15:37:54;6.20;;;4.40;;
7047;SDS011;3565;53.254;10.352;2023-11-18T15:43:01;7.30;;;4.70;;
7047;SDS011;3565;53.254;10.352;2023-11-18T15:45:32;6.40;;;4.17;;
7047;SDS011;3565;53.254;10.352;2023-11-18T15:50:41;8.47;;;5.03;;
7047;SDS011;3565;53.254;10.352;2023-11-18T15:55:47;7.37;;;5.13;;
7047;SDS011;3565;53.254;10.352;2023-11-18T15:58:16;6.90;;;4.80;;
7047;SDS011;3565;53.254;10.352;2023-11-18T16:00:48;8.43;;;5.07;;
7047;SDS011;3565;53.254;10.352;2023-11-18T16:03:18;7.40;;;5.10;;
7047;SDS011;3565;53.254;10.352;2023-11-18T16:05:47;6.80;;;5.27;;
7047;SDS011;3565;53.254;10.352;2023-11-18T16:08:16;6.50;;;4.67;;
7047;SDS011;3565;53.254;10.352;2023-11-18T16:10:45;7.90;;;5.37;;
7047;SDS011;3565;53.254;10.352;2023-11-18T16:13:13;11.47;;;6.00;;
7047;SDS011;3565;53.254;10.352;2023-11-18T16:15:42;7.43;;;5.03;;
7047;SDS011;3565;53.254;10.352;2023-11-18T16:18:11;8.07;;;5.43;;
7047;SDS011;3565;53.254;10.352;2023-11-18T16:20:40;7.60;;;5.17;;
7047;SDS011;3565;53.254;10.352;2023-11-18T16:23:09;8.13;;;5.97;;
7047;SDS011;3565;53.254;10.352;2023-11-18T16:25:49;8.93;;;5.63;;
7047;SDS011;3565;53.254;10.352;2023-11-18T16:28:18;8.43;;;5.63;;
7047;SDS011;3565;53.254;10.352;2023-11-18T16:30:47;9.60;;;5.40;;
7047;SDS011;3565;53.254;10.352;2023-11-18T16:33:17;9.30;;;6.27;;
7047;SDS011;3565;53.254;10.352;2023-11-18T16:35:46;8.83;;;5.87;;
7047;SDS011;3565;53.254;10.352;2023-11-18T16:38:25;9.10;;;5.53;;
7047;SDS011;3565;53.254;10.352;2023-11-18T16:40:55;10.17;;;7.17;;
7047;SDS011;3565;53.254;10.352;2023-11-18T16:43:25;13.60;;;7.00;;
7047;SDS011;3565;53.254;10.352;2023-11-18T16:48:30;11.33;;;7.40;;
7047;SDS011;3565;53.254;10.352;2023-11-18T16:50:59;10.43;;;6.87;;
7047;SDS011;3565;53.254;10.352;2023-11-18T16:56:06;12.57;;;7.97;;
7047;SDS011;3565;53.254;10.352;2023-11-18T16:58:36;15.00;;;8.63;;
7047;SDS011;3565;53.254;10.352;2023-11-18T17:01:06;19.67;;;8.80;;
7047;SDS011;3565;53.254;10.352;2023-11-18T17:03:35;17.87;;;9.93;;
7047;SDS011;3565;53.254;10.352;2023-11-18T17:08:42;18.33;;;9.20;;
7047;SDS011;3565;53.254;10.352;2023-11-18T17:11:11;20.47;;;10.27;;
7047;SDS011;3565;53.254;10.352;2023-11-18T17:16:17;18.90;;;10.17;;
7047;SDS011;3565;53.254;10.352;2023-11-18T17:19:01;22.50;;;11.30;;
7047;SDS011;3565;53.254;10.352;2023-11-18T17:21:31;24.60;;;12.83;;
7047;SDS011;3565;53.254;10.352;2023-11-18T17:24:00;21.07;;;11.03;;
7047;SDS011;3565;53.254;10.352;2023-11-18T17:26:32;21.47;;;12.20;;
7047;SDS011;3565;53.254;10.352;2023-11-18T17:29:04;22.10;;;11.90;;
7047;SDS011;3565;53.254;10.352;2023-11-18T17:31:34;24.07;;;11.60;;
7047;SDS011;3565;53.254;10.352;2023-11-18T17:34:04;19.10;;;11.63;;
7047;SDS011;3565;53.254;10.352;2023-11-18T17:36:35;22.53;;;10.57;;
7047;SDS011;3565;53.254;10.352;2023-11-18T17:39:13;25.30;;;11.83;;
7047;SDS011;3565;53.254;10.352;2023-11-18T17:41:44;30.07;;;14.93;;
7047;SDS011;3565;53.254;10.352;2023-11-18T17:46:50;22.00;;;11.53;;
7047;SDS011;3565;53.254;10.352;2023-11-18T17:49:19;22.67;;;12.50;;
7047;SDS011;3565;53.254;10.352;2023-11-18T17:51:47;23.13;;;12.30;;
7047;SDS011;3565;53.254;10.352;2023-11-18T17:56:54;21.63;;;12.20;;
7047;SDS011;3565;53.254;10.352;2023-11-18T17:59:25;22.10;;;11.93;;
7047;SDS011;3565;53.254;10.352;2023-11-18T18:04:32;26.57;;;13.30;;
7047;SDS011;3565;53.254;10.352;2023-11-18T18:07:00;25.47;;;12.40;;
7047;SDS011;3565;53.254;10.352;2023-11-18T18:09:30;28.03;;;13.03;;
7047;SDS011;3565;53.254;10.352;2023-11-18T18:11:59;23.90;;;14.07;;
7047;SDS011;3565;53.254;10.352;2023-11-18T18:17:05;26.17;;;13.10;;
7047;SDS011;3565;53.254;10.352;2023-11-18T18:19:34;24.90;;;13.00;;
7047;SDS011;3565;53.254;10.352;2023-11-18T18:22:04;24.87;;;12.73;;
7047;SDS011;3565;53.254;10.352;2023-11-18T18:24:42;23.60;;;13.23;;
7047;SDS011;3565;53.254;10.352;2023-11-18T18:27:11;27.97;;;13.30;;
7047;SDS011;3565;53.254;10.352;2023-11-18T18:29:40;24.27;;;13.13;;
7047;SDS011;3565;53.254;10.352;2023-11-18T18:32:09;27.47;;;13.53;;
7047;SDS011;3565;53.254;10.352;2023-11-18T18:34:38;24.73;;;13.60;;
7047;SDS011;3565;53.254;10.352;2023-11-18T18:37:08;30.10;;;14.37;;
7047;SDS011;3565;53.254;10.352;2023-11-18T18:39:37;28.00;;;15.50;;
7047;SDS011;3565;53.254;10.352;2023-11-18T18:42:16;25.87;;;14.30;;
7047;SDS011;3565;53.254;10.352;2023-11-18T18:47:22;23.10;;;12.97;;
7047;SDS011;3565;53.254;10.352;2023-11-18T18:49:51;26.67;;;13.93;;
7047;SDS011;3565;53.254;10.352;2023-11-18T18:52:20;32.00;;;13.77;;
7047;SDS011;3565;53.254;10.352;2023-11-18T18:54:49;23.77;;;12.50;;
7047;SDS011;3565;53.254;10.352;2023-11-18T18:59:55;27.47;;;13.97;;
7047;SDS011;3565;53.254;10.352;2023-11-18T19:05:01;28.37;;;13.97;;
7047;SDS011;3565;53.254;10.352;2023-11-18T19:07:29;26.63;;;13.30;;
7047;SDS011;3565;53.254;10.352;2023-11-18T19:09:59;26.23;;;13.07;;
7047;SDS011;3565;53.254;10.352;2023-11-18T19:15:06;25.77;;;13.13;;
7047;SDS011;3565;53.254;10.352;2023-11-18T19:17:36;28.60;;;14.00;;
7047;SDS011;3565;53.254;10.352;2023-11-18T19:20:08;24.53;;;13.70;;
7047;SDS011;3565;53.254;10.352;2023-11-18T19:22:39;28.00;;;12.83;;
7047;SDS011;3565;53.254;10.352;2023-11-18T19:27:46;25.73;;;13.57;;
7047;SDS011;3565;53.254;10.352;2023-11-18T19:30:15;27.90;;;14.57;;
7047;SDS011;3565;53.254;10.352;2023-11-18T19:32:53;27.73;;;14.27;;
7047;SDS011;3565;53.254;10.352;2023-11-18T19:35:22;28.80;;;14.40;;
7047;SDS011;3565;53.254;10.352;2023-11-18T19:40:30;27.20;;;14.53;;
7047;SDS011;3565;53.254;10.352;2023-11-18T19:45:36;29.97;;;14.23;;
7047;SDS011;3565;53.254;10.352;2023-11-18T19:48:05;27.67;;;14.43;;
7047;SDS011;3565;53.254;10.352;2023-11-18T19:50:34;29.23;;;14.20;;
7047;SDS011;3565;53.254;10.352;2023-11-18T19:53:03;26.80;;;13.90;;
7047;SDS011;3565;53.254;10.352;2023-11-18T19:55:41;28.90;;;14.37;;
7047;SDS011;3565;53.254;10.352;2023-11-18T19:58:10;27.53;;;13.67;;
7047;SDS011;3565;53.254;10.352;2023-11-18T20:00:39;26.07;;;13.93;;
7047;SDS011;3565;53.254;10.352;2023-11-18T20:03:10;26.73;;;13.83;;